sensor_id;sensor_type;location;lat;lon;timestamp;P1;durP1;ratioP1;P2;durP2;ratioP2
45136;SDS011;30894;51.740;19.498;2023-08-08T00:00:50;1.70;;;1.27;;
45136;SDS011;30894;51.740;19.498;2023-08-08T00:03:32;1.48;;;0.80;;
45136;SDS011;30894;51.740;19.498;2023-08-08T00:06:00;2.78;;;0.90;;
45136;SDS011;30894;51.740;19.498;2023-08-08T00:08:25;3.25;;;1.20;;
45136;SDS011;30894;51.740;19.498;2023-08-08T00:10:52;2.00;;;1.10;;
45136;SDS011;30894;51.740;19.498;2023-08-08T00:13:18;0.88;;;0.88;;
45136;SDS011;30894;51.740;19.498;2023-08-08T00:15:45;1.15;;;0.80;;
45136;SDS011;30894;51.740;19.498;2023-08-08T00:18:10;2.58;;;1.02;;
45136;SDS011;30894;51.740;19.498;2023-08-08T00:20:37;1.23;;;0.88;;
45136;SDS011;30894;51.740;19.498;2023-08-08T00:23:03;3.95;;;1.30;;
45136;SDS011;30894;51.740;19.498;2023-08-08T00:25:29;2.38;;;1.20;;
45136;SDS011;30894;51.740;19.498;2023-08-08T00:27:55;2.75;;;0.90;;
45136;SDS011;30894;51.740;19.498;2023-08-08T00:30:21;3.88;;;0.82;;
45136;SDS011;30894;51.740;19.498;2023-08-08T00:32:47;3.70;;;0.90;;
45136;SDS011;30894;51.740;19.498;2023-08-08T00:35:14;2.67;;;1.05;;
45136;SDS011;30894;51.740;19.498;2023-08-08T00:37:40;1.13;;;0.70;;
45136;SDS011;30894;51.740;19.498;2023-08-08T00:40:06;2.15;;;1.10;;
45136;SDS011;30894;51.740;19.498;2023-08-08T00:42:33;5.53;;;1.20;;
45136;SDS011;30894;51.740;19.498;2023-08-08T00:44:59;1.58;;;0.93;;
45136;SDS011;30894;51.740;19.498;2023-08-08T00:47:30;3.05;;;1.05;;
45136;SDS011;30894;51.740;19.498;2023-08-08T00:49:58;2.88;;;0.98;;
45136;SDS011;30894;51.740;19.498;2023-08-08T00:52:24;3.30;;;0.73;;
45136;SDS011;30894;51.740;19.498;2023-08-08T00:54:51;1.20;;;0.80;;
45136;SDS011;30894;51.740;19.498;2023-08-08T00:57:18;0.95;;;0.85;;
45136;SDS011;30894;51.740;19.498;2023-08-08T00:59:44;1.70;;;0.95;;
45136;SDS011;30894;51.740;19.498;2023-08-08T01:02:11;3.75;;;1.00;;
45136;SDS011;30894;51.740;19.498;2023-08-08T01:04:37;1.73;;;0.90;;
45136;SDS011;30894;51.740;19.498;2023-08-08T01:09:53;3.90;;;1.13;;
45136;SDS011;30894;51.740;19.498;2023-08-08T01:12:29;2.65;;;1.13;;
45136;SDS011;30894;51.740;19.498;2023-08-08T01:14:56;5.38;;;0.80;;
45136;SDS011;30894;51.740;19.498;2023-08-08T01:17:22;1.92;;;0.80;;
45136;SDS011;30894;51.740;19.498;2023-08-08T01:19:50;2.55;;;1.00;;
45136;SDS011;30894;51.740;19.498;2023-08-08T01:22:32;2.95;;;1.08;;
45136;SDS011;30894;51.740;19.498;2023-08-08T01:25:05;2.45;;;0.90;;
45136;SDS011;30894;51.740;19.498;2023-08-08T01:27:34;2.88;;;1.05;;
45136;SDS011;30894;51.740;19.498;2023-08-08T01:30:00;2.08;;;0.98;;
45136;SDS011;30894;51.740;19.498;2023-08-08T01:32:27;1.85;;;0.65;;
45136;SDS011;30894;51.740;19.498;2023-08-08T01:34:53;2.88;;;0.95;;
45136;SDS011;30894;51.740;19.498;2023-08-08T01:37:36;3.55;;;0.80;;
45136;SDS011;30894;51.740;19.498;2023-08-08T01:40:10;1.80;;;0.75;;
45136;SDS011;30894;51.740;19.498;2023-08-08T01:42:43;2.53;;;0.88;;
45136;SDS011;30894;51.740;19.498;2023-08-08T01:45:12;1.27;;;0.93;;
45136;SDS011;30894;51.740;19.498;2023-08-08T01:47:40;3.47;;;1.15;;
45136;SDS011;30894;51.740;19.498;2023-08-08T01:50:07;3.33;;;1.15;;
45136;SDS011;30894;51.740;19.498;2023-08-08T01:52:34;1.95;;;0.60;;
45136;SDS011;30894;51.740;19.498;2023-08-08T01:55:01;1.67;;;1.00;;
45136;SDS011;30894;51.740;19.498;2023-08-08T01:57:27;3.75;;;1.42;;
45136;SDS011;30894;51.740;19.498;2023-08-08T01:59:53;7.97;;;1.17;;
45136;SDS011;30894;51.740;19.498;2023-08-08T02:02:19;1.75;;;1.00;;
45136;SDS011;30894;51.740;19.498;2023-08-08T02:04:45;4.95;;;1.02;;
45136;SDS011;30894;51.740;19.498;2023-08-08T02:07:11;4.75;;;1.00;;
45136;SDS011;30894;51.740;19.498;2023-08-08T02:09:37;4.65;;;1.00;;
45136;SDS011;30894;51.740;19.498;2023-08-08T02:12:03;2.13;;;1.00;;
45136;SDS011;30894;51.740;19.498;2023-08-08T02:14:30;2.80;;;1.15;;
45136;SDS011;30894;51.740;19.498;2023-08-08T02:16:56;1.95;;;0.95;;
45136;SDS011;30894;51.740;19.498;2023-08-08T02:19:22;3.05;;;0.95;;
45136;SDS011;30894;51.740;19.498;2023-08-08T02:21:48;2.50;;;0.98;;
45136;SDS011;30894;51.740;19.498;2023-08-08T02:24:15;4.35;;;1.45;;
45136;SDS011;30894;51.740;19.498;2023-08-08T02:26:40;5.03;;;1.38;;
45136;SDS011;30894;51.740;19.498;2023-08-08T02:29:07;1.65;;;1.00;;
45136;SDS011;30894;51.740;19.498;2023-08-08T02:31:32;2.67;;;0.82;;
45136;SDS011;30894;51.740;19.498;2023-08-08T02:33:59;3.10;;;0.80;;
45136;SDS011;30894;51.740;19.498;2023-08-08T02:36:25;6.07;;;1.23;;
45136;SDS011;30894;51.740;19.498;2023-08-08T02:38:51;2.53;;;1.02;;
45136;SDS011;30894;51.740;19.498;2023-08-08T02:41:19;3.97;;;1.70;;
45136;SDS011;30894;51.740;19.498;2023-08-08T02:43:46;2.58;;;1.70;;
45136;SDS011;30894;51.740;19.498;2023-08-08T02:46:12;3.53;;;1.02;;
45136;SDS011;30894;51.740;19.498;2023-08-08T02:48:38;1.65;;;0.85;;
45136;SDS011;30894;51.740;19.498;2023-08-08T02:51:04;2.88;;;1.10;;
45136;SDS011;30894;51.740;19.498;2023-08-08T02:53:33;2.22;;;1.00;;
45136;SDS011;30894;51.740;19.498;2023-08-08T02:55:59;3.60;;;1.38;;
45136;SDS011;30894;51.740;19.498;2023-08-08T02:58:25;2.22;;;1.00;;
45136;SDS011;30894;51.740;19.498;2023-08-08T03:00:52;5.85;;;1.35;;
45136;SDS011;30894;51.740;19.498;2023-08-08T03:03:18;5.97;;;0.93;;
45136;SDS011;30894;51.740;19.498;2023-08-08T03:05:44;2.85;;;1.13;;
45136;SDS011;30894;51.740;19.498;2023-08-08T03:08:14;1.77;;;0.90;;
45136;SDS011;30894;51.740;19.498;2023-08-08T03:10:39;2.60;;;0.80;;
45136;SDS011;30894;51.740;19.498;2023-08-08T03:13:06;2.22;;;1.13;;
45136;SDS011;30894;51.740;19.498;2023-08-08T03:15:32;2.25;;;1.23;;
45136;SDS011;30894;51.740;19.498;2023-08-08T03:17:59;6.68;;;1.50;;
45136;SDS011;30894;51.740;19.498;2023-08-08T03:20:25;1.48;;;0.93;;
45136;SDS011;30894;51.740;19.498;2023-08-08T03:22:51;4.15;;;1.00;;
45136;SDS011;30894;51.740;19.498;2023-08-08T03:25:17;4.18;;;1.13;;
45136;SDS011;30894;51.740;19.498;2023-08-08T03:27:44;3.22;;;0.93;;
45136;SDS011;30894;51.740;19.498;2023-08-08T03:30:10;3.50;;;1.33;;
45136;SDS011;30894;51.740;19.498;2023-08-08T03:32:37;1.33;;;0.90;;
45136;SDS011;30894;51.740;19.498;2023-08-08T03:35:03;2.25;;;0.95;;
45136;SDS011;30894;51.740;19.498;2023-08-08T03:37:30;2.22;;;0.88;;
45136;SDS011;30894;51.740;19.498;2023-08-08T03:39:55;4.10;;;1.20;;
45136;SDS011;30894;51.740;19.498;2023-08-08T03:42:22;3.08;;;1.10;;
45136;SDS011;30894;51.740;19.498;2023-08-08T03:44:48;3.50;;;1.20;;
45136;SDS011;30894;51.740;19.498;2023-08-08T03:47:14;3.28;;;0.90;;
45136;SDS011;30894;51.740;19.498;2023-08-08T03:49:40;2.05;;;1.25;;
45136;SDS011;30894;51.740;19.498;2023-08-08T03:52:06;2.40;;;1.15;;
45136;SDS011;30894;51.740;19.498;2023-08-08T03:54:32;5.25;;;1.40;;
45136;SDS011;30894;51.740;19.498;2023-08-08T03:56:59;1.35;;;1.00;;
45136;SDS011;30894;51.740;19.498;2023-08-08T03:59:26;3.58;;;1.10;;
45136;SDS011;30894;51.740;19.498;2023-08-08T04:01:52;0.70;;;0.70;;
45136;SDS011;30894;51.740;19.498;2023-08-08T04:04:18;3.72;;;1.13;;
45136;SDS011;30894;51.740;19.498;2023-08-08T04:06:44;1.30;;;0.90;;
45136;SDS011;30894;51.740;19.498;2023-08-08T04:09:10;4.43;;;0.75;;
45136;SDS011;30894;51.740;19.498;2023-08-08T04:11:37;3.42;;;1.13;;
45136;SDS011;30894;51.740;19.498;2023-08-08T04:14:02;5.10;;;1.13;;
45136;SDS011;30894;51.740;19.498;2023-08-08T04:16:29;3.83;;;1.08;;
45136;SDS011;30894;51.740;19.498;2023-08-08T04:18:55;3.75;;;1.10;;
45136;SDS011;30894;51.740;19.498;2023-08-08T04:21:21;3.20;;;0.80;;
45136;SDS011;30894;51.740;19.498;2023-08-08T04:23:48;2.40;;;0.98;;
45136;SDS011;30894;51.740;19.498;2023-08-08T04:26:14;4.00;;;0.82;;
45136;SDS011;30894;51.740;19.498;2023-08-08T04:28:40;3.35;;;1.02;;
45136;SDS011;30894;51.740;19.498;2023-08-08T04:31:06;4.20;;;1.00;;
45136;SDS011;30894;51.740;19.498;2023-08-08T04:33:32;1.52;;;0.80;;
45136;SDS011;30894;51.740;19.498;2023-08-08T04:35:59;7.60;;;1.20;;
45136;SDS011;30894;51.740;19.498;2023-08-08T04:38:26;4.10;;;1.08;;
45136;SDS011;30894;51.740;19.498;2023-08-08T04:40:53;2.45;;;1.02;;
45136;SDS011;30894;51.740;19.498;2023-08-08T04:43:20;3.60;;;1.10;;
45136;SDS011;30894;51.740;19.498;2023-08-08T04:45:47;4.28;;;1.10;;
45136;SDS011;30894;51.740;19.498;2023-08-08T04:48:13;1.73;;;0.90;;
45136;SDS011;30894;51.740;19.498;2023-08-08T04:50:41;2.92;;;1.08;;
45136;SDS011;30894;51.740;19.498;2023-08-08T04:53:08;3.05;;;0.77;;
45136;SDS011;30894;51.740;19.498;2023-08-08T04:55:35;2.22;;;1.20;;
45136;SDS011;30894;51.740;19.498;2023-08-08T04:58:04;1.17;;;0.93;;
45136;SDS011;30894;51.740;19.498;2023-08-08T05:00:31;6.60;;;0.88;;
45136;SDS011;30894;51.740;19.498;2023-08-08T05:02:59;3.58;;;0.82;;
45136;SDS011;30894;51.740;19.498;2023-08-08T05:05:29;2.28;;;1.20;;
45136;SDS011;30894;51.740;19.498;2023-08-08T05:07:55;6.13;;;1.25;;
45136;SDS011;30894;51.740;19.498;2023-08-08T05:10:22;1.10;;;1.00;;
45136;SDS011;30894;51.740;19.498;2023-08-08T05:12:48;1.70;;;1.10;;
45136;SDS011;30894;51.740;19.498;2023-08-08T05:15:14;2.95;;;1.08;;
45136;SDS011;30894;51.740;19.498;2023-08-08T05:17:41;9.15;;;1.10;;
45136;SDS011;30894;51.740;19.498;2023-08-08T05:20:07;2.55;;;0.98;;
45136;SDS011;30894;51.740;19.498;2023-08-08T05:22:35;3.35;;;1.00;;
45136;SDS011;30894;51.740;19.498;2023-08-08T05:25:02;5.50;;;0.90;;
45136;SDS011;30894;51.740;19.498;2023-08-08T05:27:28;1.77;;;1.00;;
45136;SDS011;30894;51.740;19.498;2023-08-08T05:29:55;3.63;;;1.25;;
45136;SDS011;30894;51.740;19.498;2023-08-08T05:32:21;6.68;;;1.25;;
45136;SDS011;30894;51.740;19.498;2023-08-08T05:34:51;3.95;;;1.08;;
45136;SDS011;30894;51.740;19.498;2023-08-08T05:37:17;2.90;;;0.77;;
45136;SDS011;30894;51.740;19.498;2023-08-08T05:39:44;5.13;;;1.08;;
45136;SDS011;30894;51.740;19.498;2023-08-08T05:42:11;2.28;;;0.98;;
45136;SDS011;30894;51.740;19.498;2023-08-08T05:44:38;2.92;;;1.10;;
45136;SDS011;30894;51.740;19.498;2023-08-08T05:47:07;2.33;;;1.13;;
45136;SDS011;30894;51.740;19.498;2023-08-08T05:49:34;6.30;;;1.30;;
45136;SDS011;30894;51.740;19.498;2023-08-08T05:52:01;2.72;;;0.82;;
45136;SDS011;30894;51.740;19.498;2023-08-08T05:54:28;1.13;;;0.90;;
45136;SDS011;30894;51.740;19.498;2023-08-08T05:56:54;3.20;;;0.85;;
45136;SDS011;30894;51.740;19.498;2023-08-08T05:59:21;4.15;;;0.73;;
45136;SDS011;30894;51.740;19.498;2023-08-08T06:01:47;1.80;;;0.90;;
45136;SDS011;30894;51.740;19.498;2023-08-08T06:04:13;2.47;;;1.08;;
45136;SDS011;30894;51.740;19.498;2023-08-08T06:06:40;1.50;;;1.00;;
45136;SDS011;30894;51.740;19.498;2023-08-08T06:09:07;1.85;;;0.90;;
45136;SDS011;30894;51.740;19.498;2023-08-08T06:11:34;1.20;;;0.95;;
45136;SDS011;30894;51.740;19.498;2023-08-08T06:14:01;6.85;;;1.20;;
45136;SDS011;30894;51.740;19.498;2023-08-08T06:16:28;2.78;;;1.05;;
45136;SDS011;30894;51.740;19.498;2023-08-08T06:18:55;2.38;;;0.80;;
45136;SDS011;30894;51.740;19.498;2023-08-08T06:21:21;2.13;;;1.08;;
45136;SDS011;30894;51.740;19.498;2023-08-08T06:23:47;1.92;;;0.90;;
45136;SDS011;30894;51.740;19.498;2023-08-08T06:26:14;2.33;;;1.00;;
45136;SDS011;30894;51.740;19.498;2023-08-08T06:28:40;4.38;;;1.10;;
45136;SDS011;30894;51.740;19.498;2023-08-08T06:31:07;1.20;;;0.90;;
45136;SDS011;30894;51.740;19.498;2023-08-08T06:33:34;1.98;;;0.80;;
45136;SDS011;30894;51.740;19.498;2023-08-08T06:36:01;4.85;;;0.95;;
45136;SDS011;30894;51.740;19.498;2023-08-08T06:38:29;2.03;;;0.90;;
45136;SDS011;30894;51.740;19.498;2023-08-08T06:41:00;2.45;;;1.02;;
45136;SDS011;30894;51.740;19.498;2023-08-08T06:43:29;3.55;;;1.25;;
45136;SDS011;30894;51.740;19.498;2023-08-08T06:45:56;5.38;;;1.10;;
45136;SDS011;30894;51.740;19.498;2023-08-08T06:48:23;3.33;;;1.27;;
45136;SDS011;30894;51.740;19.498;2023-08-08T06:50:49;2.38;;;0.88;;
45136;SDS011;30894;51.740;19.498;2023-08-08T06:53:15;2.72;;;1.15;;
45136;SDS011;30894;51.740;19.498;2023-08-08T06:55:42;1.42;;;0.90;;
45136;SDS011;30894;51.740;19.498;2023-08-08T06:58:10;4.63;;;1.00;;
45136;SDS011;30894;51.740;19.498;2023-08-08T07:00:38;3.13;;;0.90;;
45136;SDS011;30894;51.740;19.498;2023-08-08T07:03:06;2.88;;;1.00;;
45136;SDS011;30894;51.740;19.498;2023-08-08T07:05:32;1.08;;;0.77;;
45136;SDS011;30894;51.740;19.498;2023-08-08T07:07:59;2.10;;;0.90;;
45136;SDS011;30894;51.740;19.498;2023-08-08T07:10:27;1.40;;;0.80;;
45136;SDS011;30894;51.740;19.498;2023-08-08T07:12:54;1.35;;;0.75;;
45136;SDS011;30894;51.740;19.498;2023-08-08T07:15:20;3.38;;;1.02;;
45136;SDS011;30894;51.740;19.498;2023-08-08T07:17:47;1.70;;;0.80;;
45136;SDS011;30894;51.740;19.498;2023-08-08T07:20:14;2.17;;;0.85;;
45136;SDS011;30894;51.740;19.498;2023-08-08T07:22:41;4.40;;;1.00;;
45136;SDS011;30894;51.740;19.498;2023-08-08T07:25:07;2.35;;;1.00;;
45136;SDS011;30894;51.740;19.498;2023-08-08T07:27:36;1.45;;;0.82;;
45136;SDS011;30894;51.740;19.498;2023-08-08T07:30:07;1.75;;;0.70;;
45136;SDS011;30894;51.740;19.498;2023-08-08T07:32:37;1.40;;;0.93;;
45136;SDS011;30894;51.740;19.498;2023-08-08T07:35:04;4.30;;;0.90;;
45136;SDS011;30894;51.740;19.498;2023-08-08T07:37:34;1.42;;;0.80;;
45136;SDS011;30894;51.740;19.498;2023-08-08T07:40:01;3.20;;;1.00;;
45136;SDS011;30894;51.740;19.498;2023-08-08T07:42:29;1.95;;;0.60;;
45136;SDS011;30894;51.740;19.498;2023-08-08T07:44:55;1.73;;;0.70;;
45136;SDS011;30894;51.740;19.498;2023-08-08T07:47:23;2.17;;;0.60;;
45136;SDS011;30894;51.740;19.498;2023-08-08T07:49:51;0.70;;;0.70;;
45136;SDS011;30894;51.740;19.498;2023-08-08T07:52:18;2.95;;;0.75;;
45136;SDS011;30894;51.740;19.498;2023-08-08T07:54:52;1.42;;;0.73;;
45136;SDS011;30894;51.740;19.498;2023-08-08T07:57:24;1.50;;;0.63;;
45136;SDS011;30894;51.740;19.498;2023-08-08T07:59:53;2.03;;;0.63;;
45136;SDS011;30894;51.740;19.498;2023-08-08T08:02:21;4.70;;;0.70;;
45136;SDS011;30894;51.740;19.498;2023-08-08T08:04:51;3.63;;;0.82;;
45136;SDS011;30894;51.740;19.498;2023-08-08T08:07:18;1.17;;;0.77;;
45136;SDS011;30894;51.740;19.498;2023-08-08T08:09:45;2.03;;;0.80;;
45136;SDS011;30894;51.740;19.498;2023-08-08T08:12:11;2.20;;;0.90;;
45136;SDS011;30894;51.740;19.498;2023-08-08T08:14:39;1.98;;;0.73;;
45136;SDS011;30894;51.740;19.498;2023-08-08T08:17:10;1.00;;;0.80;;
45136;SDS011;30894;51.740;19.498;2023-08-08T08:19:43;1.83;;;0.80;;
45136;SDS011;30894;51.740;19.498;2023-08-08T08:22:13;2.05;;;0.50;;
45136;SDS011;30894;51.740;19.498;2023-08-08T08:24:39;3.15;;;0.57;;
45136;SDS011;30894;51.740;19.498;2023-08-08T08:27:06;0.55;;;0.52;;
45136;SDS011;30894;51.740;19.498;2023-08-08T08:29:33;2.92;;;0.93;;
45136;SDS011;30894;51.740;19.498;2023-08-08T08:32:03;2.30;;;0.70;;
45136;SDS011;30894;51.740;19.498;2023-08-08T08:34:32;1.15;;;0.60;;
45136;SDS011;30894;51.740;19.498;2023-08-08T08:36:59;0.73;;;0.50;;
45136;SDS011;30894;51.740;19.498;2023-08-08T08:39:26;1.85;;;0.60;;
45136;SDS011;30894;51.740;19.498;2023-08-08T08:41:58;1.65;;;0.50;;
45136;SDS011;30894;51.740;19.498;2023-08-08T08:44:30;1.17;;;0.70;;
45136;SDS011;30894;51.740;19.498;2023-08-08T08:46:58;1.35;;;0.60;;
45136;SDS011;30894;51.740;19.498;2023-08-08T08:49:30;2.92;;;0.70;;
45136;SDS011;30894;51.740;19.498;2023-08-08T08:51:57;3.20;;;0.88;;
45136;SDS011;30894;51.740;19.498;2023-08-08T08:54:30;1.60;;;0.65;;
45136;SDS011;30894;51.740;19.498;2023-08-08T08:57:01;1.13;;;0.55;;
45136;SDS011;30894;51.740;19.498;2023-08-08T08:59:27;1.35;;;0.70;;
45136;SDS011;30894;51.740;19.498;2023-08-08T09:01:57;1.80;;;0.98;;
45136;SDS011;30894;51.740;19.498;2023-08-08T09:04:25;1.35;;;0.70;;
45136;SDS011;30894;51.740;19.498;2023-08-08T09:06:54;0.50;;;0.50;;
45136;SDS011;30894;51.740;19.498;2023-08-08T09:09:21;0.98;;;0.47;;
45136;SDS011;30894;51.740;19.498;2023-08-08T09:11:50;4.18;;;0.90;;
45136;SDS011;30894;51.740;19.498;2023-08-08T09:14:22;0.60;;;0.60;;
45136;SDS011;30894;51.740;19.498;2023-08-08T09:16:53;0.63;;;0.50;;
45136;SDS011;30894;51.740;19.498;2023-08-08T09:19:20;0.55;;;0.55;;
45136;SDS011;30894;51.740;19.498;2023-08-08T09:21:49;0.45;;;0.40;;
45136;SDS011;30894;51.740;19.498;2023-08-08T09:24:24;0.47;;;0.45;;
45136;SDS011;30894;51.740;19.498;2023-08-08T09:27:00;1.38;;;0.50;;
45136;SDS011;30894;51.740;19.498;2023-08-08T09:29:26;0.75;;;0.40;;
45136;SDS011;30894;51.740;19.498;2023-08-08T09:31:53;0.63;;;0.47;;
45136;SDS011;30894;51.740;19.498;2023-08-08T09:34:24;0.43;;;0.43;;
45136;SDS011;30894;51.740;19.498;2023-08-08T09:36:54;0.88;;;0.40;;
45136;SDS011;30894;51.740;19.498;2023-08-08T09:39:21;1.27;;;0.55;;
45136;SDS011;30894;51.740;19.498;2023-08-08T09:41:48;0.77;;;0.60;;
45136;SDS011;30894;51.740;19.498;2023-08-08T09:44:22;0.90;;;0.50;;
45136;SDS011;30894;51.740;19.498;2023-08-08T09:46:59;0.60;;;0.60;;
45136;SDS011;30894;51.740;19.498;2023-08-08T09:49:27;1.10;;;0.60;;
45136;SDS011;30894;51.740;19.498;2023-08-08T09:52:05;2.20;;;0.50;;
45136;SDS011;30894;51.740;19.498;2023-08-08T09:54:40;1.95;;;0.60;;
45136;SDS011;30894;51.740;19.498;2023-08-08T09:57:07;1.50;;;0.70;;
45136;SDS011;30894;51.740;19.498;2023-08-08T09:59:55;1.55;;;0.55;;
45136;SDS011;30894;51.740;19.498;2023-08-08T10:02:29;0.90;;;0.60;;
45136;SDS011;30894;51.740;19.498;2023-08-08T10:04:56;1.48;;;0.98;;
45136;SDS011;30894;51.740;19.498;2023-08-08T10:07:27;1.98;;;0.73;;
45136;SDS011;30894;51.740;19.498;2023-08-08T10:10:06;1.95;;;1.10;;
45136;SDS011;30894;51.740;19.498;2023-08-08T10:12:54;1.85;;;0.98;;
45136;SDS011;30894;51.740;19.498;2023-08-08T10:15:26;0.60;;;0.50;;
45136;SDS011;30894;51.740;19.498;2023-08-08T10:18:12;1.00;;;0.60;;
45136;SDS011;30894;51.740;19.498;2023-08-08T10:20:49;1.63;;;0.50;;
45136;SDS011;30894;51.740;19.498;2023-08-08T10:23:19;1.70;;;0.60;;
45136;SDS011;30894;51.740;19.498;2023-08-08T10:26:04;1.75;;;0.50;;
45136;SDS011;30894;51.740;19.498;2023-08-08T10:28:52;1.38;;;0.60;;
45136;SDS011;30894;51.740;19.498;2023-08-08T10:31:22;1.85;;;0.60;;
45136;SDS011;30894;51.740;19.498;2023-08-08T10:34:05;0.77;;;0.52;;
45136;SDS011;30894;51.740;19.498;2023-08-08T10:36:42;0.90;;;0.50;;
45136;SDS011;30894;51.740;19.498;2023-08-08T10:39:20;1.77;;;0.68;;
45136;SDS011;30894;51.740;19.498;2023-08-08T10:41:50;1.42;;;0.80;;
45136;SDS011;30894;51.740;19.498;2023-08-08T10:44:39;0.82;;;0.70;;
45136;SDS011;30894;51.740;19.498;2023-08-08T10:47:08;0.75;;;0.65;;
45136;SDS011;30894;51.740;19.498;2023-08-08T10:49:37;4.07;;;0.55;;
45136;SDS011;30894;51.740;19.498;2023-08-08T10:52:03;2.13;;;0.60;;
45136;SDS011;30894;51.740;19.498;2023-08-08T10:54:30;1.63;;;0.82;;
45136;SDS011;30894;51.740;19.498;2023-08-08T10:57:03;1.88;;;0.70;;
45136;SDS011;30894;51.740;19.498;2023-08-08T10:59:41;0.98;;;0.75;;
45136;SDS011;30894;51.740;19.498;2023-08-08T11:02:07;2.50;;;0.80;;
45136;SDS011;30894;51.740;19.498;2023-08-08T11:04:34;1.33;;;0.70;;
45136;SDS011;30894;51.740;19.498;2023-08-08T11:07:04;2.45;;;0.70;;
45136;SDS011;30894;51.740;19.498;2023-08-08T11:09:31;1.17;;;0.55;;
45136;SDS011;30894;51.740;19.498;2023-08-08T11:11:58;1.08;;;0.60;;
45136;SDS011;30894;51.740;19.498;2023-08-08T11:14:28;1.20;;;0.77;;
45136;SDS011;30894;51.740;19.498;2023-08-08T11:16:54;4.03;;;0.80;;
45136;SDS011;30894;51.740;19.498;2023-08-08T11:19:28;0.82;;;0.50;;
45136;SDS011;30894;51.740;19.498;2023-08-08T11:21:56;1.83;;;0.77;;
45136;SDS011;30894;51.740;19.498;2023-08-08T11:24:22;1.80;;;1.17;;
45136;SDS011;30894;51.740;19.498;2023-08-08T11:26:58;1.88;;;0.90;;
45136;SDS011;30894;51.740;19.498;2023-08-08T11:29:32;1.48;;;0.98;;
45136;SDS011;30894;51.740;19.498;2023-08-08T11:32:01;4.85;;;0.70;;
45136;SDS011;30894;51.740;19.498;2023-08-08T11:34:38;3.40;;;1.08;;
45136;SDS011;30894;51.740;19.498;2023-08-08T11:37:04;0.85;;;0.60;;
45136;SDS011;30894;51.740;19.498;2023-08-08T11:39:31;1.05;;;0.63;;
45136;SDS011;30894;51.740;19.498;2023-08-08T11:41:57;1.17;;;0.50;;
45136;SDS011;30894;51.740;19.498;2023-08-08T11:44:24;0.80;;;0.57;;
45136;SDS011;30894;51.740;19.498;2023-08-08T11:46:59;3.60;;;0.75;;
45136;SDS011;30894;51.740;19.498;2023-08-08T11:49:27;0.70;;;0.50;;
45136;SDS011;30894;51.740;19.498;2023-08-08T11:52:08;0.98;;;0.40;;
45136;SDS011;30894;51.740;19.498;2023-08-08T11:54:37;1.65;;;0.60;;
45136;SDS011;30894;51.740;19.498;2023-08-08T11:57:09;0.82;;;0.38;;
45136;SDS011;30894;51.740;19.498;2023-08-08T11:59:40;1.33;;;0.73;;
45136;SDS011;30894;51.740;19.498;2023-08-08T12:02:06;2.65;;;0.60;;
45136;SDS011;30894;51.740;19.498;2023-08-08T12:04:33;2.25;;;0.60;;
45136;SDS011;30894;51.740;19.498;2023-08-08T12:07:00;2.97;;;0.70;;
45136;SDS011;30894;51.740;19.498;2023-08-08T12:09:33;2.70;;;0.68;;
45136;SDS011;30894;51.740;19.498;2023-08-08T12:12:04;0.90;;;0.73;;
45136;SDS011;30894;51.740;19.498;2023-08-08T12:14:36;1.30;;;0.70;;
45136;SDS011;30894;51.740;19.498;2023-08-08T12:17:05;1.77;;;0.55;;
45136;SDS011;30894;51.740;19.498;2023-08-08T12:19:35;1.30;;;0.60;;
45136;SDS011;30894;51.740;19.498;2023-08-08T12:22:16;2.28;;;0.50;;
45136;SDS011;30894;51.740;19.498;2023-08-08T12:24:45;0.80;;;0.57;;
45136;SDS011;30894;51.740;19.498;2023-08-08T12:27:12;0.40;;;0.40;;
45136;SDS011;30894;51.740;19.498;2023-08-08T12:29:40;0.30;;;0.30;;
45136;SDS011;30894;51.740;19.498;2023-08-08T12:32:13;0.90;;;0.50;;
45136;SDS011;30894;51.740;19.498;2023-08-08T12:34:48;0.68;;;0.50;;
45136;SDS011;30894;51.740;19.498;2023-08-08T12:37:18;2.38;;;0.50;;
45136;SDS011;30894;51.740;19.498;2023-08-08T12:39:45;0.63;;;0.52;;
45136;SDS011;30894;51.740;19.498;2023-08-08T12:42:21;0.98;;;0.65;;
45136;SDS011;30894;51.740;19.498;2023-08-08T12:44:49;0.43;;;0.43;;
45136;SDS011;30894;51.740;19.498;2023-08-08T12:47:18;1.00;;;0.90;;
45136;SDS011;30894;51.740;19.498;2023-08-08T12:49:47;2.40;;;0.50;;
45136;SDS011;30894;51.740;19.498;2023-08-08T12:52:17;1.50;;;0.70;;
45136;SDS011;30894;51.740;19.498;2023-08-08T12:54:45;0.85;;;0.55;;
45136;SDS011;30894;51.740;19.498;2023-08-08T12:57:12;1.10;;;0.60;;
45136;SDS011;30894;51.740;19.498;2023-08-08T12:59:42;0.50;;;0.50;;
45136;SDS011;30894;51.740;19.498;2023-08-08T13:02:09;1.40;;;0.70;;
45136;SDS011;30894;51.740;19.498;2023-08-08T13:04:38;2.70;;;0.80;;
45136;SDS011;30894;51.740;19.498;2023-08-08T13:07:05;2.05;;;0.63;;
45136;SDS011;30894;51.740;19.498;2023-08-08T13:09:31;0.98;;;0.65;;
45136;SDS011;30894;51.740;19.498;2023-08-08T13:11:58;2.10;;;0.60;;
45136;SDS011;30894;51.740;19.498;2023-08-08T13:14:27;0.35;;;0.35;;
45136;SDS011;30894;51.740;19.498;2023-08-08T13:16:53;0.50;;;0.50;;
45136;SDS011;30894;51.740;19.498;2023-08-08T13:19:19;4.35;;;0.60;;
45136;SDS011;30894;51.740;19.498;2023-08-08T13:21:52;0.60;;;0.40;;
45136;SDS011;30894;51.740;19.498;2023-08-08T13:24:19;1.27;;;0.50;;
45136;SDS011;30894;51.740;19.498;2023-08-08T13:26:51;0.57;;;0.52;;
45136;SDS011;30894;51.740;19.498;2023-08-08T13:29:19;0.85;;;0.50;;
45136;SDS011;30894;51.740;19.498;2023-08-08T13:31:45;1.10;;;0.80;;
45136;SDS011;30894;51.740;19.498;2023-08-08T13:34:13;3.17;;;0.70;;
45136;SDS011;30894;51.740;19.498;2023-08-08T13:36:40;1.85;;;0.75;;
45136;SDS011;30894;51.740;19.498;2023-08-08T13:39:08;0.50;;;0.50;;
45136;SDS011;30894;51.740;19.498;2023-08-08T13:41:37;0.73;;;0.50;;
45136;SDS011;30894;51.740;19.498;2023-08-08T13:44:03;0.95;;;0.70;;
45136;SDS011;30894;51.740;19.498;2023-08-08T13:46:30;0.73;;;0.60;;
45136;SDS011;30894;51.740;19.498;2023-08-08T13:48:57;3.20;;;0.65;;
45136;SDS011;30894;51.740;19.498;2023-08-08T13:51:23;2.28;;;0.75;;
45136;SDS011;30894;51.740;19.498;2023-08-08T13:53:49;0.40;;;0.40;;
45136;SDS011;30894;51.740;19.498;2023-08-08T13:56:16;0.50;;;0.50;;
45136;SDS011;30894;51.740;19.498;2023-08-08T13:58:49;0.73;;;0.57;;
45136;SDS011;30894;51.740;19.498;2023-08-08T14:01:19;1.00;;;0.60;;
45136;SDS011;30894;51.740;19.498;2023-08-08T14:03:46;0.32;;;0.32;;
45136;SDS011;30894;51.740;19.498;2023-08-08T14:06:13;2.30;;;0.93;;
45136;SDS011;30894;51.740;19.498;2023-08-08T14:08:42;0.77;;;0.50;;
45136;SDS011;30894;51.740;19.498;2023-08-08T14:11:08;0.77;;;0.50;;
45136;SDS011;30894;51.740;19.498;2023-08-08T14:13:36;0.98;;;0.52;;
45136;SDS011;30894;51.740;19.498;2023-08-08T14:16:04;0.45;;;0.45;;
45136;SDS011;30894;51.740;19.498;2023-08-08T14:18:35;0.95;;;0.63;;
45136;SDS011;30894;51.740;19.498;2023-08-08T14:21:02;1.58;;;0.75;;
45136;SDS011;30894;51.740;19.498;2023-08-08T14:23:34;1.77;;;0.70;;
45136;SDS011;30894;51.740;19.498;2023-08-08T14:26:01;0.73;;;0.63;;
45136;SDS011;30894;51.740;19.498;2023-08-08T14:28:28;0.80;;;0.70;;
45136;SDS011;30894;51.740;19.498;2023-08-08T14:30:55;1.38;;;0.60;;
45136;SDS011;30894;51.740;19.498;2023-08-08T14:33:22;0.80;;;0.70;;
45136;SDS011;30894;51.740;19.498;2023-08-08T14:35:48;9.60;;;0.80;;
45136;SDS011;30894;51.740;19.498;2023-08-08T14:40:51;0.70;;;0.50;;
45136;SDS011;30894;51.740;19.498;2023-08-08T14:43:20;1.25;;;0.98;;
45136;SDS011;30894;51.740;19.498;2023-08-08T14:45:48;5.63;;;0.82;;